Time;durP1;ratioP1;P1;durP2;ratioP2;P2;SDS_P1;SDS_P2;PMS_P1;PMS_P2;Temp;Humidity;BMP_temperature;BMP_pressure;BME280_temperature;BME280_humidity;BME280_pressure;Samples;Min_cycle;Max_cycle;Signal;HPM_P1;HPM_P2
2022/04/12 00:01:49;;;;;;;5.90;3.67;;;;;;;11.14;51.00;100983.34;5299260;28;20550;-68
2022/04/12 00:04:20;;;;;;;5.25;3.55;;;;;;;11.17;51.74;100981.28;5302689;28;20023;-68
2022/04/12 00:06:51;;;;;;;5.72;3.85;;;;;;;11.13;51.00;100971.16;5302244;28;20028;-69
2022/04/12 00:09:23;;;;;;;5.63;3.53;;;;;;;11.14;51.94;100978.09;5299688;28;20172;-68
2022/04/12 00:11:54;;;;;;;7.95;3.58;;;;;;;11.10;51.23;100979.28;5302150;28;20481;-69
2022/04/12 00:14:25;;;;;;;6.30;3.45;;;;;;;11.02;51.38;100969.47;5301610;28;20039;-67
2022/04/12 00:19:02;;;;;;;4.65;3.28;;;;;;;11.03;51.02;100951.97;5299787;28;20023;-67
2022/04/12 00:19:48;;;;;;;5.82;3.55;;;;;;;11.03;52.01;100962.44;5299433;28;20056;-69
2022/04/12 00:22:19;;;;;;;8.27;3.55;;;;;;;11.01;51.54;100966.97;5301171;28;20062;-68
2022/04/12 00:24:50;;;;;;;5.15;3.72;;;;;;;11.02;51.21;100960.75;5302395;28;20027;-68
2022/04/12 00:27:21;;;;;;;6.15;3.47;;;;;;;10.98;50.88;100959.38;5301348;28;20169;-67
2022/04/12 00:29:54;;;;;;;5.60;3.28;;;;;;;10.99;51.26;100955.81;5299479;28;20485;-68
2022/04/12 00:32:25;;;;;;;4.90;3.20;;;;;;;10.99;51.02;100963.66;5300048;28;20027;-67
2022/04/12 00:34:57;;;;;;;6.47;3.05;;;;;;;10.92;51.94;100964.19;5298682;28;20024;-68
2022/04/12 00:37:28;;;;;;;5.95;3.13;;;;;;;10.95;50.51;100971.78;5299114;28;20501;-67
2022/04/12 00:40:00;;;;;;;7.30;3.13;;;;;;;10.94;50.74;100959.63;5301026;28;20622;-68
2022/04/12 00:42:31;;;;;;;5.47;3.05;;;;;;;10.90;51.31;100960.00;5301814;28;20028;-67
2022/04/12 00:45:03;;;;;;;5.93;3.40;;;;;;;10.86;51.33;100964.69;5299546;28;20744;-69
2022/04/12 00:47:34;;;;;;;4.30;2.92;;;;;;;10.88;51.10;100964.56;5300750;28;20028;-67
2022/04/12 00:50:07;;;;;;;4.80;2.78;;;;;;;10.87;51.47;100962.88;5301760;28;20049;-67
2022/04/12 00:52:42;;;;;;;7.15;3.67;;;;;;;10.90;51.40;100966.09;5297738;28;20480;-69
2022/04/12 00:55:15;;;;;;;5.75;3.28;;;;;;;10.84;51.20;100964.00;5299044;28;20032;-68
2022/04/12 00:57:47;;;;;;;7.37;3.10;;;;;;;10.84;51.44;100963.16;5298877;28;20030;-68
2022/04/12 01:00:18;;;;;;;5.43;3.10;;;;;;;10.81;50.96;100966.88;5298617;28;20023;-68
2022/04/12 01:02:50;;;;;;;6.65;2.92;;;;;;;10.73;52.48;100973.72;5300472;28;20019;-68
2022/04/12 01:05:21;;;;;;;5.45;3.20;;;;;;;10.75;51.82;100963.91;5298050;28;20028;-68
2022/04/12 01:07:54;;;;;;;6.93;2.83;;;;;;;10.69;52.37;100960.88;5299032;28;20496;-68
2022/04/12 01:10:25;;;;;;;7.10;3.30;;;;;;;10.69;52.33;100953.00;5299254;28;20801;-69
2022/04/12 01:12:57;;;;;;;5.88;3.03;;;;;;;10.67;53.04;100946.22;5301320;28;20015;-67
2022/04/12 01:15:28;;;;;;;6.30;3.40;;;;;;;10.63;52.91;100945.63;5299847;28;20031;-68
2022/04/12 01:17:59;;;;;;;6.13;3.15;;;;;;;10.61;52.35;100952.00;5297947;28;20508;-69
2022/04/12 01:20:31;;;;;;;10.60;3.47;;;;;;;10.50;53.26;100947.63;5302648;28;20550;-68
2022/04/12 01:23:14;;;;;;;6.38;3.15;;;;;;;10.60;53.08;100958.16;5295751;28;20130;-67
2022/04/12 01:25:46;;;;;;;5.55;3.35;;;;;;;10.54;53.77;100961.31;5298613;28;20115;-67
2022/04/12 01:28:17;;;;;;;5.25;2.97;;;;;;;10.47;53.28;100951.31;5300002;28;20027;-68
2022/04/12 01:30:51;;;;;;;6.15;3.10;;;;;;;10.50;53.22;100952.03;5300346;28;20081;-67
2022/04/12 01:33:22;;;;;;;6.55;3.38;;;;;;;10.44;53.40;100956.81;5299495;27;20434;-68
2022/04/12 01:35:53;;;;;;;5.75;2.78;;;;;;;10.42;53.67;100952.69;5302523;28;20018;-68
2022/04/12 01:38:25;;;;;;;5.18;2.88;;;;;;;10.40;53.86;100950.16;5297107;28;20128;-68
2022/04/12 01:40:56;;;;;;;6.50;3.13;;;;;;;10.33;54.61;100951.63;5297545;28;20027;-67
2022/04/12 01:43:27;;;;;;;4.78;3.10;;;;;;;10.36;53.87;100948.75;5298234;28;20039;-68
2022/04/12 01:45:59;;;;;;;4.55;2.83;;;;;;;10.34;53.71;100948.06;5300000;28;20043;-68
2022/04/12 01:48:30;;;;;;;8.73;2.85;;;;;;;10.31;54.99;100945.69;5298284;28;20040;-67
2022/04/12 01:51:01;;;;;;;5.90;2.72;;;;;;;10.27;54.88;100946.91;5297128;28;20038;-68
2022/04/12 01:53:33;;;;;;;5.90;3.10;;;;;;;10.17;55.63;100943.34;5298620;28;20207;-67
2022/04/12 01:56:04;;;;;;;7.57;3.20;;;;;;;10.20;55.46;100937.84;5299809;28;20027;-68
2022/04/12 01:58:36;;;;;;;4.57;3.20;;;;;;;10.13;56.27;100934.91;5299026;28;20032;-68
2022/04/12 02:01:08;;;;;;;4.80;3.05;;;;;;;10.17;55.33;100925.84;5299971;28;20027;-68
2022/04/12 02:03:39;;;;;;;5.93;3.50;;;;;;;10.03;57.82;100933.97;5297011;28;20016;-67
2022/04/12 02:06:10;;;;;;;5.88;3.17;;;;;;;10.05;57.87;100934.69;5300643;28;20027;-68
2022/04/12 02:08:43;;;;;;;5.05;2.95;;;;;;;10.02;56.69;100944.59;5300308;28;20556;-69
2022/04/12 02:11:15;;;;;;;5.25;2.78;;;;;;;10.01;56.40;100943.75;5296765;28;20031;-68
2022/04/12 02:13:46;;;;;;;6.38;3.42;;;;;;;9.98;56.88;100946.63;5299123;28;20020;-69
2022/04/12 02:16:18;;;;;;;7.50;3.78;;;;;;;9.91;57.63;100946.28;5298218;28;20075;-68
2022/04/12 02:18:49;;;;;;;6.50;3.50;;;;;;;9.88;57.26;100943.91;5301093;28;20031;-68
2022/04/12 02:21:20;;;;;;;5.47;3.05;;;;;;;9.83;58.05;100932.16;5300423;28;20170;-68
2022/04/12 02:23:51;;;;;;;6.63;3.30;;;;;;;9.87;57.27;100925.72;5298898;28;20245;-68
2022/04/12 02:26:22;;;;;;;7.25;3.13;;;;;;;9.80;58.46;100930.59;5296586;28;20036;-67
2022/04/12 02:28:54;;;;;;;5.20;3.00;;;;;;;9.79;59.01;100943.81;5299438;28;20134;-68
2022/04/12 02:31:25;;;;;;;5.95;3.63;;;;;;;9.74;58.20;100931.13;5297749;28;20032;-68
2022/04/12 02:33:56;;;;;;;5.28;3.10;;;;;;;9.77;59.59;100927.41;5300306;28;20024;-69
2022/04/12 02:36:28;;;;;;;8.82;3.45;;;;;;;9.75;58.27;100924.91;5299417;28;20027;-67
2022/04/12 02:38:59;;;;;;;7.32;3.10;;;;;;;9.67;59.68;100928.16;5299754;28;20019;-68
2022/04/12 02:41:30;;;;;;;7.22;3.08;;;;;;;9.61;59.71;100920.78;5299035;28;20489;-68
2022/04/12 02:44:02;;;;;;;6.32;3.38;;;;;;;9.59;60.18;100927.09;5298662;28;20425;-68
2022/04/12 02:46:34;;;;;;;5.90;3.20;;;;;;;9.60;59.77;100918.28;5302833;28;20032;-68
2022/04/12 02:49:05;;;;;;;5.20;3.05;;;;;;;9.47;61.09;100915.78;5302340;28;20480;-68
2022/04/12 02:51:36;;;;;;;9.55;3.83;;;;;;;9.48;60.29;100913.06;5301530;28;20023;-68
2022/04/12 02:54:08;;;;;;;7.63;3.13;;;;;;;9.47;60.71;100906.19;5303910;28;20031;-67
2022/04/12 02:56:39;;;;;;;8.23;3.20;;;;;;;9.45;61.08;100910.69;5303843;28;20488;-68
2022/04/12 02:59:10;;;;;;;6.72;3.13;;;;;;;9.38;62.00;100901.66;5304833;28;20111;-68
2022/04/12 03:01:41;;;;;;;7.13;3.40;;;;;;;9.37;61.77;100907.03;5299627;28;20282;-67
2022/04/12 03:04:13;;;;;;;8.95;3.65;;;;;;;9.29;62.37;100910.25;5302378;28;20329;-68
2022/04/12 03:06:44;;;;;;;5.45;3.15;;;;;;;9.31;62.11;100903.09;5303523;28;20027;-68
2022/04/12 03:09:17;;;;;;;3.42;2.50;;;;;;;9.21;62.24;100887.31;5300550;28;20107;-68
2022/04/12 03:11:49;;;;;;;;;;;;;;;9.71;60.04;100889.50;5302459;28;20035;-68
2022/04/12 03:14:20;;;;;;;6.63;2.87;;;;;;;9.26;62.74;100881.72;5300680;28;19911;-69
2022/04/12 03:16:51;;;;;;;5.55;3.35;;;;;;;9.22;62.77;100899.44;5302049;27;20659;-67
2022/04/12 03:19:23;;;;;;;6.65;3.70;;;;;;;9.15;63.38;100892.19;5300196;28;20054;-69
2022/04/12 03:21:54;;;;;;;7.57;3.50;;;;;;;9.16;63.96;100879.00;5302893;28;20019;-68
2022/04/12 03:24:26;;;;;;;6.53;3.47;;;;;;;9.15;63.39;100866.88;5301422;28;20115;-68
2022/04/12 03:26:57;;;;;;;5.10;3.22;;;;;;;9.12;63.81;100872.34;5302120;28;20032;-68
2022/04/12 03:29:28;;;;;;;9.82;3.55;;;;;;;9.11;64.25;100875.91;5303048;28;20039;-68
2022/04/12 03:32:01;;;;;;;5.32;2.80;;;;;;;9.14;63.74;100867.84;5299210;28;20031;-70
2022/04/12 03:34:32;;;;;;;6.37;3.63;;;;;;;9.13;63.74;100865.34;5301665;28;20093;-67
2022/04/12 03:37:04;;;;;;;8.43;3.60;;;;;;;9.11;64.24;100875.09;5302109;28;20020;-68
2022/04/12 03:39:35;;;;;;;10.35;3.80;;;;;;;9.14;63.68;100880.09;5301969;28;20507;-69
2022/04/12 03:42:11;;;;;;;6.38;3.55;;;;;;;9.13;63.78;100878.41;5301853;28;20027;-68
2022/04/12 03:44:42;;;;;;;5.53;3.70;;;;;;;9.11;64.23;100873.31;5299371;28;20036;-70
2022/04/12 03:47:13;;;;;;;6.22;3.65;;;;;;;9.09;64.56;100890.91;5299951;28;20051;-68
2022/04/12 03:49:45;;;;;;;5.60;3.80;;;;;;;9.08;64.02;100876.16;5300527;28;20059;-67
2022/04/12 03:52:16;;;;;;;6.15;3.75;;;;;;;9.00;65.79;100858.47;5301383;28;20024;-68
2022/04/12 03:54:47;;;;;;;5.97;2.97;;;;;;;8.96;66.12;100851.81;5301607;28;20055;-69
2022/04/12 03:57:19;;;;;;;5.50;3.50;;;;;;;8.89;66.90;100850.63;5302858;28;20071;-68
2022/04/12 03:59:50;;;;;;;8.68;3.53;;;;;;;8.91;66.00;100851.34;5303920;28;20032;-70
2022/04/12 04:02:22;;;;;;;5.13;3.55;;;;;;;8.93;66.26;100865.09;5298594;28;20178;-69
2022/04/12 04:04:53;;;;;;;5.47;3.58;;;;;;;8.96;66.63;100864.88;5301751;28;20024;-69
2022/04/12 04:07:25;;;;;;;6.97;3.58;;;;;;;8.99;65.70;100862.03;5298720;28;20039;-68
2022/04/12 04:09:56;;;;;;;5.78;3.60;;;;;;;9.04;65.70;100861.66;5301949;28;20028;-68
2022/04/12 04:12:28;;;;;;;7.75;3.67;;;;;;;9.01;66.24;100854.88;5301120;28;20039;-67
2022/04/12 04:15:00;;;;;;;7.15;4.20;;;;;;;8.99;66.32;100864.66;5300826;28;20089;-68
2022/04/12 04:17:31;;;;;;;9.70;3.75;;;;;;;9.02;66.12;100859.19;5300790;28;20028;-67
2022/04/12 04:20:04;;;;;;;5.65;3.40;;;;;;;9.00;66.62;100858.47;5300810;28;20573;-68
2022/04/12 04:22:35;;;;;;;6.47;4.00;;;;;;;8.99;66.97;100856.81;5301256;28;20172;-68
2022/04/12 04:25:08;;;;;;;8.00;3.83;;;;;;;8.96;67.38;100850.97;5301215;28;20027;-69
2022/04/12 04:27:41;;;;;;;;;;;;;;;9.39;64.74;100853.66;5300456;28;20039;-67
2022/04/12 04:30:13;;;;;;;5.50;3.33;;;;;;;8.99;66.83;100863.81;5302778;28;20406;-67
2022/04/12 04:32:44;;;;;;;7.10;3.75;;;;;;;8.97;66.67;100863.09;5298457;28;20274;-68
2022/04/12 04:35:15;;;;;;;5.43;3.65;;;;;;;8.96;66.84;100866.66;5302040;28;20026;-67
2022/04/12 04:37:50;;;;;;;5.43;3.85;;;;;;;9.02;66.64;100860.97;5299859;28;20038;-68
2022/04/12 04:40:22;;;;;;;7.80;3.80;;;;;;;8.91;67.23;100861.78;5300490;28;20197;-69
2022/04/12 04:42:53;;;;;;;6.95;3.60;;;;;;;8.91;67.29;100871.44;5299295;28;20186;-68
2022/04/12 04:45:24;;;;;;;7.32;3.70;;;;;;;8.92;67.41;100886.13;5299419;28;20031;-68
2022/04/12 04:47:59;;;;;;;7.35;3.78;;;;;;;8.88;67.48;100879.50;5300133;28;20419;-67
2022/04/12 04:50:32;;;;;;;6.63;4.50;;;;;;;8.88;68.23;100903.84;5300307;28;20031;-67
2022/04/12 04:53:06;;;;;;;6.18;3.53;;;;;;;8.94;67.43;100910.34;5299097;28;20056;-67
2022/04/12 04:55:39;;;;;;;7.55;4.47;;;;;;;8.87;67.51;100914.41;5300777;28;20740;-67
2022/04/12 04:58:11;;;;;;;8.50;4.32;;;;;;;8.89;67.39;100915.94;5301159;28;20397;-67
2022/04/12 05:00:43;;;;;;;5.75;3.90;;;;;;;8.73;68.18;100911.06;5297392;28;20056;-68
2022/04/12 05:03:14;;;;;;;7.25;3.90;;;;;;;8.81;68.74;100907.84;5299150;28;20022;-67
2022/04/12 05:05:45;;;;;;;6.85;4.20;;;;;;;8.79;68.84;100896.72;5298289;28;20027;-68
2022/04/12 05:08:17;;;;;;;7.55;4.38;;;;;;;8.80;69.05;100884.47;5299543;28;20047;-69
2022/04/12 05:10:48;;;;;;;6.75;4.40;;;;;;;8.78;70.28;100879.34;5298388;28;20374;-68
2022/04/12 05:13:19;;;;;;;7.28;4.07;;;;;;;8.77;70.68;100873.31;5300535;28;20489;-67
2022/04/12 05:15:51;;;;;;;7.00;4.10;;;;;;;8.87;69.89;100883.06;5301448;28;20095;-67
2022/04/12 05:18:22;;;;;;;8.10;4.63;;;;;;;8.91;68.95;100895.75;5299416;28;20032;-67
2022/04/12 05:20:53;;;;;;;9.57;4.50;;;;;;;8.97;69.51;100889.22;5297305;28;20144;-68
2022/04/12 05:23:25;;;;;;;8.18;4.30;;;;;;;8.97;70.17;100884.81;5299906;28;20388;-67
2022/04/12 05:25:56;;;;;;;8.10;4.45;;;;;;;9.04;69.81;100889.59;5294112;28;20063;-68
2022/04/12 05:28:27;;;;;;;7.75;4.57;;;;;;;9.08;69.39;100880.56;5298464;28;20043;-67
2022/04/12 05:30:58;;;;;;;10.07;4.82;;;;;;;9.10;69.12;100865.59;5301723;28;20072;-67
2022/04/12 05:33:30;;;;;;;7.38;4.38;;;;;;;9.14;69.47;100873.06;5299134;28;20461;-69
2022/04/12 05:36:01;;;;;;;7.43;4.22;;;;;;;9.16;69.18;100875.56;5297972;28;20023;-68
2022/04/12 05:38:32;;;;;;;8.93;4.40;;;;;;;9.20;68.61;100884.81;5296566;28;20024;-68
2022/04/12 05:41:03;;;;;;;7.47;4.43;;;;;;;9.24;68.10;100886.22;5301159;28;20028;-67
2022/04/12 05:43:35;;;;;;;6.75;4.28;;;;;;;9.22;68.65;100883.75;5298392;28;20058;-67
2022/04/12 05:46:06;;;;;;;8.52;4.30;;;;;;;9.20;69.19;100872.56;5300354;28;20027;-69
2022/04/12 05:48:37;;;;;;;6.80;4.47;;;;;;;9.26;68.37;100884.34;5297933;28;20036;-67
2022/04/12 05:51:09;;;;;;;7.03;4.22;;;;;;;9.24;68.43;100886.22;5299500;28;20451;-68
2022/04/12 05:53:40;;;;;;;6.30;4.10;;;;;;;9.20;69.41;100895.28;5297508;28;20055;-67
2022/04/12 05:56:11;;;;;;;6.65;4.50;;;;;;;9.22;68.90;100894.22;5299079;28;20022;-67
2022/04/12 05:58:42;;;;;;;8.25;5.05;;;;;;;9.26;69.08;100889.56;5297478;28;20081;-69
2022/04/12 06:01:14;;;;;;;7.10;4.60;;;;;;;9.16;69.38;100875.56;5291838;28;20054;-68
2022/04/12 06:03:45;;;;;;;6.43;4.60;;;;;;;9.30;68.97;100895.41;5295575;28;20028;-69
2022/04/12 06:06:16;;;;;;;9.32;5.68;;;;;;;9.32;69.13;100889.09;5296773;28;20032;-67
2022/04/12 06:08:48;;;;;;;7.25;4.70;;;;;;;9.31;68.81;100892.66;5296885;28;20455;-68
2022/04/12 06:11:20;;;;;;;8.52;5.20;;;;;;;9.38;69.25;100893.00;5300614;28;20015;-68
2022/04/12 06:13:52;;;;;;;9.13;5.40;;;;;;;9.45;68.56;100891.56;5300122;28;20041;-68
2022/04/12 06:16:23;;;;;;;8.82;5.05;;;;;;;9.49;68.67;100891.19;5298311;28;20036;-69
2022/04/12 06:18:55;;;;;;;8.93;5.03;;;;;;;9.55;68.90;100889.91;5299317;28;20043;-67
2022/04/12 06:21:27;;;;;;;8.77;4.53;;;;;;;9.69;67.97;100894.00;5301214;28;20394;-67
2022/04/12 06:23:58;;;;;;;8.90;5.22;;;;;;;9.80;67.37;100891.34;5302455;28;20021;-68
2022/04/12 06:26:29;;;;;;;7.40;4.80;;;;;;;9.87;68.72;100899.53;5304376;28;20038;-67
2022/04/12 06:29:03;;;;;;;7.55;4.60;;;;;;;10.01;65.88;100896.66;5303635;28;20108;-68
2022/04/12 06:31:35;;;;;;;7.15;5.32;;;;;;;10.05;65.53;100895.44;5304463;28;20087;-67
2022/04/12 06:34:07;;;;;;;8.32;4.53;;;;;;;10.15;65.20;100893.75;5301608;28;20489;-67
2022/04/12 06:36:38;;;;;;;11.63;5.20;;;;;;;10.26;64.42;100895.47;5300620;28;20011;-68
2022/04/12 06:39:09;;;;;;;8.82;4.63;;;;;;;10.35;64.07;100904.38;5305219;28;20028;-67
2022/04/12 06:41:40;;;;;;;8.88;5.53;;;;;;;10.43;64.25;100902.78;5292849;28;20032;-68
2022/04/12 06:44:12;;;;;;;8.75;5.50;;;;;;;10.55;63.42;100906.16;5294647;28;20336;-67
2022/04/12 06:46:43;;;;;;;11.52;4.70;;;;;;;10.70;62.84;100893.56;5300710;28;20023;-68
2022/04/12 06:49:14;;;;;;;7.40;4.82;;;;;;;10.80;63.23;100880.53;5301343;28;20020;-67
2022/04/12 06:51:45;;;;;;;9.68;5.65;;;;;;;11.00;61.65;100884.88;5301005;28;20031;-68
2022/04/12 06:54:17;;;;;;;8.50;4.80;;;;;;;11.14;60.30;100870.59;5302318;28;20030;-67
2022/04/12 06:56:48;;;;;;;7.35;4.30;;;;;;;11.25;60.34;100874.88;5303740;28;20126;-68
2022/04/12 06:59:20;;;;;;;6.95;4.85;;;;;;;11.40;59.79;100892.75;5300913;28;20305;-69
2022/04/12 07:01:51;;;;;;;10.23;4.60;;;;;;;11.58;58.98;100881.59;5303324;28;20277;-68
2022/04/12 07:04:23;;;;;;;8.35;5.07;;;;;;;11.70;58.10;100888.38;5303345;28;20358;-68
2022/04/12 07:06:56;;;;;;;8.90;4.75;;;;;;;11.80;57.17;100883.13;5297586;27;20157;-69
2022/04/12 07:09:28;;;;;;;6.97;4.68;;;;;;;11.93;57.85;100879.31;5299572;28;20056;-69
2022/04/12 07:12:01;;;;;;;6.10;4.32;;;;;;;12.20;57.24;100876.94;5299250;28;20028;-67
2022/04/12 07:14:33;;;;;;;8.85;4.57;;;;;;;12.28;55.93;100877.09;5300148;28;20244;-67
2022/04/12 07:17:05;;;;;;;7.57;4.50;;;;;;;12.47;56.12;100874.44;5300407;28;20020;-69
2022/04/12 07:19:36;;;;;;;7.30;4.40;;;;;;;12.61;54.87;100883.66;5300281;28;20043;-67
2022/04/12 07:22:09;;;;;;;7.97;4.47;;;;;;;12.76;54.41;100887.47;5299970;28;20781;-67
2022/04/12 07:24:40;;;;;;;7.63;3.97;;;;;;;12.97;53.81;100882.00;5297151;28;20015;-67
2022/04/12 07:27:11;;;;;;;8.55;4.63;;;;;;;13.09;53.12;100878.22;5297845;28;20316;-68
2022/04/12 07:29:43;;;;;;;6.97;4.55;;;;;;;13.27;53.44;100878.31;5300645;28;20023;-68
2022/04/12 07:32:14;;;;;;;6.47;4.40;;;;;;;13.42;51.37;100881.28;5300391;28;20073;-68
2022/04/12 07:34:46;;;;;;;8.05;3.95;;;;;;;13.58;51.42;100876.19;5299461;28;20020;-68
2022/04/12 07:37:17;;;;;;;5.60;3.75;;;;;;;13.69;51.07;100877.78;5298321;28;20020;-68
2022/04/12 07:39:48;;;;;;;7.28;4.53;;;;;;;13.86;49.87;100873.47;5301358;28;20495;-68
2022/04/12 07:42:20;;;;;;;7.53;4.15;;;;;;;13.96;50.22;100879.50;5295781;28;20073;-68
2022/04/12 07:44:52;;;;;;;6.20;4.20;;;;;;;14.12;50.36;100873.53;5299443;27;20054;-68
2022/04/12 07:47:24;;;;;;;8.50;4.30;;;;;;;14.30;50.52;100873.53;5296903;28;20061;-68
2022/04/12 07:49:55;;;;;;;7.15;3.72;;;;;;;14.52;50.73;100872.22;5302057;28;20058;-67
2022/04/12 07:52:26;;;;;;;5.97;3.88;;;;;;;14.65;48.89;100877.91;5304627;28;20032;-68
2022/04/12 07:54:57;;;;;;;8.27;3.97;;;;;;;14.72;48.22;100870.19;5297747;28;20024;-69
2022/04/12 07:57:29;;;;;;;6.57;3.50;;;;;;;14.84;48.12;100876.84;5299390;28;20032;-68
2022/04/12 08:00:00;;;;;;;6.95;3.45;;;;;;;14.94;47.34;100872.28;5298200;28;20032;-68
2022/04/12 08:02:31;;;;;;;5.80;3.50;;;;;;;15.11;47.47;100880.28;5298481;28;20055;-67
2022/04/12 08:05:03;;;;;;;6.82;3.40;;;;;;;15.20;48.06;100887.25;5297525;28;20036;-69
2022/04/12 08:07:34;;;;;;;5.65;3.28;;;;;;;15.39;47.43;100883.53;5298468;28;20034;-68
2022/04/12 08:10:06;;;;;;;6.80;3.75;;;;;;;15.43;46.71;100882.22;5303206;28;20088;-68
2022/04/12 08:12:37;;;;;;;5.00;3.03;;;;;;;15.53;46.88;100883.72;5290509;28;20286;-69
2022/04/12 08:15:13;;;;;;;7.55;4.18;;;;;;;15.73;47.07;100879.00;5298698;28;20093;-69
2022/04/12 08:17:45;;;;;;;5.57;3.22;;;;;;;15.71;45.51;100883.63;5298509;28;20033;-68
2022/04/12 08:20:16;;;;;;;5.35;2.85;;;;;;;15.92;46.75;100884.97;5300208;28;20043;-68
2022/04/12 08:22:48;;;;;;;9.00;3.45;;;;;;;15.97;45.51;100885.31;5298226;28;20484;-68
2022/04/12 08:25:20;;;;;;;5.87;3.00;;;;;;;16.01;44.71;100886.63;5296032;28;20039;-68
2022/04/12 08:27:51;;;;;;;7.13;3.70;;;;;;;16.17;46.36;100885.78;5302250;28;20027;-69
2022/04/12 08:30:23;;;;;;;4.80;3.17;;;;;;;16.28;45.74;100882.81;5298252;27;20496;-69
2022/04/12 08:32:54;;;;;;;6.55;3.38;;;;;;;16.38;44.47;100887.94;5298300;28;20039;-68
2022/04/12 08:35:25;;;;;;;7.95;3.03;;;;;;;16.56;45.00;100882.47;5301793;28;20020;-68
2022/04/12 08:37:57;;;;;;;5.32;2.80;;;;;;;16.62;43.45;100879.97;5296442;28;20050;-68
2022/04/12 08:40:28;;;;;;;5.03;2.17;;;;;;;16.75;43.19;100874.19;5296494;28;20443;-68
2022/04/12 08:43:01;;;;;;;5.20;2.58;;;;;;;16.77;42.49;100867.72;5294243;28;20189;-69
2022/04/12 08:45:36;;;;;;;5.50;2.30;;;;;;;16.94;42.60;100862.38;5296975;28;20023;-68
2022/04/12 08:48:08;;;;;;;6.53;2.08;;;;;;;16.99;43.22;100847.63;5294561;28;20024;-69
2022/04/12 08:50:39;;;;;;;5.93;2.20;;;;;;;17.17;43.20;100850.03;5287783;28;20044;-70
2022/04/12 08:53:12;;;;;;;4.00;2.05;;;;;;;17.31;42.80;100837.06;5296092;28;20031;-70
2022/04/12 08:55:43;;;;;;;5.65;2.85;;;;;;;17.28;42.45;100843.53;5295461;28;20111;-69
2022/04/12 08:58:15;;;;;;;6.72;2.50;;;;;;;17.33;42.11;100845.66;5297262;28;20100;-69
2022/04/12 09:00:46;;;;;;;6.50;2.85;;;;;;;17.36;42.15;100846.13;5298067;28;20054;-69
2022/04/12 09:03:17;;;;;;;4.10;2.03;;;;;;;17.43;41.50;100841.78;5294759;28;20117;-69
2022/04/12 09:05:49;;;;;;;6.47;2.08;;;;;;;17.65;42.34;100850.75;5296802;28;20118;-69
2022/04/12 09:08:28;;;;;;;4.32;2.22;;;;;;;17.90;42.29;100854.06;5295239;28;20121;-68
2022/04/12 09:11:04;;;;;;;11.88;2.63;;;;;;;17.90;41.30;100854.06;5299502;28;20031;-69
2022/04/12 09:13:36;;;;;;;5.05;1.85;;;;;;;18.09;41.57;100846.63;5295863;28;20032;-69
2022/04/12 09:16:09;;;;;;;4.50;2.20;;;;;;;18.17;41.26;100836.78;5296897;28;20587;-68
2022/04/12 09:18:44;;;;;;;5.60;2.40;;;;;;;18.18;40.92;100816.38;5295310;28;20481;-70
2022/04/12 09:21:16;;;;;;;4.25;2.15;;;;;;;18.21;40.51;100816.03;5294104;28;20040;-69
2022/04/12 09:23:52;;;;;;;6.00;2.38;;;;;;;18.36;40.85;100810.75;5299485;28;20070;-68
2022/04/12 09:26:26;;;;;;;4.40;2.20;;;;;;;18.44;41.40;100818.59;5298793;28;20101;-71
2022/04/12 09:29:02;;;;;;;6.22;2.58;;;;;;;18.34;40.84;100818.06;5297021;28;20517;-68
2022/04/12 09:31:36;;;;;;;4.30;2.10;;;;;;;18.47;40.50;100816.41;5298589;28;20042;-68
2022/04/12 09:34:08;;;;;;;5.78;2.33;;;;;;;18.53;40.14;100804.25;5296009;28;20073;-68
2022/04/12 09:36:39;;;;;;;7.57;2.42;;;;;;;18.61;39.68;100801.50;5295727;28;20604;-68
2022/04/12 09:39:16;;;;;;;3.95;2.05;;;;;;;18.90;40.55;100815.78;5296699;28;20396;-68
2022/04/12 09:41:48;;;;;;;7.20;2.80;;;;;;;18.74;40.80;100818.66;5298520;28;20019;-68
2022/04/12 09:44:20;;;;;;;3.97;2.17;;;;;;;18.70;39.57;100818.16;5298846;28;20028;-70
2022/04/12 09:46:54;;;;;;;5.83;2.87;;;;;;;18.71;39.75;100807.41;5296735;28;20403;-69
2022/04/12 09:49:26;;;;;;;5.15;2.63;;;;;;;18.78;39.82;100819.91;5298290;28;20289;-69
2022/04/12 09:52:09;;;;;;;4.40;2.08;;;;;;;19.19;40.21;100815.72;5298038;28;20534;-69
2022/04/12 09:54:40;;;;;;;;;;;;;;;19.31;38.17;100817.91;5295962;28;20031;-69
2022/04/12 09:57:12;;;;;;;6.00;2.73;;;;;;;19.04;40.03;100824.75;5295451;28;20121;-69
2022/04/12 09:59:44;;;;;;;5.83;2.33;;;;;;;19.15;40.01;100821.59;5294987;28;20031;-69
2022/04/12 10:02:16;;;;;;;4.65;2.10;;;;;;;19.31;39.20;100824.03;5294774;28;20375;-71
2022/04/12 10:04:48;;;;;;;7.35;2.30;;;;;;;19.32;39.27;100811.56;5297642;28;20084;-71
2022/04/12 10:07:21;;;;;;;5.70;2.30;;;;;;;19.36;39.05;100804.88;5299052;28;20045;-69
2022/04/12 10:09:57;;;;;;;3.90;2.25;;;;;;;19.44;39.45;100799.44;5297462;28;20102;-68
2022/04/12 10:12:29;;;;;;;7.40;2.42;;;;;;;19.41;38.92;100800.66;5295183;28;20032;-68
2022/04/12 10:15:01;;;;;;;6.43;2.33;;;;;;;19.78;39.31;100787.31;5299345;28;20020;-68
2022/04/12 10:17:33;;;;;;;4.40;2.03;;;;;;;20.03;39.63;100772.56;5298764;28;20400;-68
2022/04/12 10:20:06;;;;;;;5.23;2.27;;;;;;;20.06;37.42;100788.16;5295698;28;20052;-69
2022/04/12 10:22:37;;;;;;;;;;;;;;;20.55;37.19;100781.94;5293307;28;20432;-68
2022/04/12 10:25:10;;;;;;;6.60;2.55;;;;;;;20.14;37.65;100782.66;5298051;28;19917;-68
2022/04/12 10:27:42;;;;;;;;;;;;;;;20.49;37.30;100769.41;5295070;28;20385;-68
2022/04/12 10:30:22;;;;;;;5.93;2.75;;;;;;;19.82;37.67;100775.28;5298181;28;19927;-69
2022/04/12 10:33:01;;;;;;;7.18;2.60;;;;;;;20.14;38.48;100768.56;5298600;28;20509;-69
2022/04/12 10:35:45;;;;;;;4.97;2.42;;;;;;;20.32;38.69;100771.53;5296444;28;20032;-70
2022/04/12 10:38:17;;;;;;;;;;;;;;;20.70;37.11;100778.31;5299021;28;20016;-70
2022/04/12 10:40:51;;;;;;;5.93;2.55;;;;;;;20.41;37.66;100758.88;5295609;28;19919;-69
2022/04/12 10:43:33;;;;;;;5.25;2.47;;;;;;;20.52;37.45;100760.22;5301258;28;20128;-69
2022/04/12 10:46:06;;;;;;;6.50;2.97;;;;;;;20.51;37.10;100763.91;5299605;28;20040;-69
2022/04/12 10:48:37;;;;;;;7.03;2.60;;;;;;;20.68;38.18;100756.38;5297552;28;20031;-69
2022/04/12 10:51:09;;;;;;;7.10;2.37;;;;;;;20.84;37.16;100756.06;5298527;28;20024;-69
2022/04/12 10:53:41;;;;;;;4.90;1.93;;;;;;;20.88;36.86;100759.97;5296083;28;20016;-69
2022/04/12 10:56:15;;;;;;;4.43;2.25;;;;;;;20.93;36.32;100736.19;5298027;28;20028;-70
2022/04/12 10:58:46;;;;;;;5.40;2.30;;;;;;;20.97;36.20;100745.44;5297260;28;20023;-69
2022/04/12 11:01:35;;;;;;;6.03;2.60;;;;;;;21.00;36.00;100747.69;5292266;28;20485;-69
2022/04/12 11:04:06;;;;;;;5.45;2.70;;;;;;;20.92;37.65;100745.22;5295872;28;20030;-69
2022/04/12 11:06:38;;;;;;;5.50;2.23;;;;;;;21.07;36.13;100759.19;5296150;28;20036;-69
2022/04/12 11:09:11;;;;;;;5.67;1.90;;;;;;;21.06;36.00;100752.25;5297517;28;20084;-70
2022/04/12 11:11:45;;;;;;;5.68;2.25;;;;;;;21.30;37.45;100763.34;5301163;28;20038;-69
2022/04/12 11:14:37;;;;;;;8.27;2.78;;;;;;;21.51;36.06;100757.03;5295991;28;20034;-70
2022/04/12 11:17:10;;;;;;;4.75;2.40;;;;;;;21.28;35.53;100760.88;5299741;28;20504;-70
2022/04/12 11:19:47;;;;;;;6.60;2.65;;;;;;;21.05;35.65;100757.75;5298416;28;20097;-70
2022/04/12 11:22:19;;;;;;;3.72;1.70;;;;;;;21.05;36.72;100745.25;5294511;28;20519;-69
2022/04/12 11:25:12;;;;;;;6.33;2.30;;;;;;;21.23;35.85;100757.19;5296539;28;20028;-70
2022/04/12 11:27:44;;;;;;;6.72;3.00;;;;;;;21.09;36.41;100746.47;5294087;28;20154;-70
2022/04/12 11:30:15;;;;;;;7.47;2.80;;;;;;;21.27;35.99;100750.41;5295992;28;20054;-70
2022/04/12 11:32:48;;;;;;;6.53;2.20;;;;;;;21.34;36.24;100737.97;5297366;28;20024;-69
2022/04/12 11:35:20;;;;;;;4.97;2.17;;;;;;;21.38;36.12;100729.34;5296761;28;20051;-70
2022/04/12 11:37:52;;;;;;;4.85;2.88;;;;;;;21.67;35.63;100727.31;5294783;28;20027;-70
2022/04/12 11:40:26;;;;;;;6.30;2.50;;;;;;;21.74;35.68;100732.63;5298631;28;20040;-71
2022/04/12 11:42:58;;;;;;;8.18;2.13;;;;;;;21.66;35.60;100751.50;5294078;28;20620;-70
2022/04/12 11:45:31;;;;;;;5.67;2.50;;;;;;;21.80;35.38;100747.81;5294403;28;20027;-69
2022/04/12 11:48:05;;;;;;;;;;;;;;;22.31;33.46;100755.97;5297496;28;20092;-70
2022/04/12 11:50:37;;;;;;;6.43;2.40;;;;;;;21.79;34.41;100752.31;5295648;28;19918;-70
2022/04/12 11:53:08;;;;;;;7.77;2.83;;;;;;;21.91;35.43;100749.84;5299313;28;20027;-69